Time;durP1;ratioP1;P1;durP2;ratioP2;P2;SDS_P1;SDS_P2;PMS_P1;PMS_P2;Temp;Humidity;BMP_temperature;BMP_pressure;BME280_temperature;BME280_humidity;BME280_pressure;Samples;Min_cycle;Max_cycle;Signal;HPM_P1;HPM_P2
2023/08/11 00:01:37;;;;;;;;;18.33;18.33;;;;;;;;5072116;28;45547;-80
2023/08/11 00:04:02;;;;;;;;;20.33;13.33;;;;;;;;5063891;28;46009;-76
2023/08/11 00:06:27;;;;;;;;;23.33;17.33;;;;;;;;5061328;28;48361;-79
2023/08/11 00:08:53;;;;;;;;;16.00;14.33;;;;;;;;5056805;28;45773;-77
2023/08/11 00:11:18;;;;;;;;;20.67;19.00;;;;;;;;5073886;28;45781;-76
2023/08/11 00:13:44;;;;;;;;;17.00;17.00;;;;;;;;5048943;28;46148;-79
2023/08/11 00:16:10;;;;;;;;;20.33;19.33;;;;;;;;5073534;28;45591;-77
2023/08/11 00:18:35;;;;;;;;;20.00;19.00;;;;;;;;5073207;28;45581;-77
2023/08/11 00:21:00;;;;;;;;;19.00;15.67;;;;;;;;5051447;28;45569;-78
2023/08/11 00:23:25;;;;;;;;;21.67;18.00;;;;;;;;5050242;28;46091;-78
2023/08/11 00:25:51;;;;;;;;;20.33;15.33;;;;;;;;5070688;28;46144;-78
2023/08/11 00:28:16;;;;;;;;;17.00;16.33;;;;;;;;5047612;28;45710;-78
2023/08/11 00:30:41;;;;;;;;;18.67;17.33;;;;;;;;5066653;28;45769;-76
2023/08/11 00:33:06;;;;;;;;;13.00;12.00;;;;;;;;5052762;28;45553;-76
2023/08/11 00:35:31;;;;;;;;;19.00;14.00;;;;;;;;5072217;28;46357;-77
2023/08/11 00:37:57;;;;;;;;;16.33;15.67;;;;;;;;5070322;28;45535;-78
2023/08/11 00:40:23;;;;;;;;;15.67;14.67;;;;;;;;5054294;28;45620;-78
2023/08/11 00:42:49;;;;;;;;;19.67;15.33;;;;;;;;5078939;28;45562;-76
2023/08/11 00:45:15;;;;;;;;;19.67;14.00;;;;;;;;5068496;28;46908;-78
2023/08/11 00:47:43;;;;;;;;;22.33;17.00;;;;;;;;5073146;28;45701;-77
2023/08/11 00:50:12;;;;;;;;;19.67;16.33;;;;;;;;5066255;28;45324;-76
2023/08/11 00:52:38;;;;;;;;;16.33;15.33;;;;;;;;5060362;28;45499;-77
2023/08/11 00:55:04;;;;;;;;;16.00;15.67;;;;;;;;5069116;28;46231;-77
2023/08/11 00:57:29;;;;;;;;;16.67;16.67;;;;;;;;5048325;28;45623;-77
2023/08/11 00:59:56;;;;;;;;;14.67;14.33;;;;;;;;5053878;28;45849;-77
2023/08/11 01:02:21;;;;;;;;;20.00;16.33;;;;;;;;5067609;28;45744;-78
2023/08/11 01:04:48;;;;;;;;;17.33;16.00;;;;;;;;5045865;28;46733;-78
2023/08/11 01:07:27;;;;;;;;;14.67;13.33;;;;;;;;5070552;28;45782;-78
2023/08/11 01:10:12;;;;;;;;;12.33;12.33;;;;;;;;5064645;28;45878;-78
2023/08/11 01:12:43;;;;;;;;;15.33;14.33;;;;;;;;5043263;28;45866;-77
2023/08/11 01:15:28;;;;;;;;;13.67;13.67;;;;;;;;5064151;28;46436;-78
2023/08/11 01:17:54;;;;;;;;;17.67;14.67;;;;;;;;5050357;28;45529;-78
2023/08/11 01:20:20;;;;;;;;;18.00;15.67;;;;;;;;5049367;28;45537;-77
2023/08/11 01:22:54;;;;;;;;;18.00;18.00;;;;;;;;5050779;28;46177;-78
2023/08/11 01:25:20;;;;;;;;;12.33;12.33;;;;;;;;5046511;28;47000;-77
2023/08/11 01:27:52;;;;;;;;;15.67;13.67;;;;;;;;5065086;28;47170;-77
2023/08/11 01:30:18;;;;;;;;;18.00;13.33;;;;;;;;5040999;28;45447;-78
2023/08/11 01:32:44;;;;;;;;;18.00;15.67;;;;;;;;5068460;28;45458;-78
2023/08/11 01:35:10;;;;;;;;;16.00;15.33;;;;;;;;5055045;28;46622;-78
2023/08/11 01:37:35;;;;;;;;;16.00;14.67;;;;;;;;5063164;28;45815;-79
2023/08/11 01:40:00;;;;;;;;;18.67;15.00;;;;;;;;5068540;28;45473;-78
2023/08/11 01:42:25;;;;;;;;;21.00;19.33;;;;;;;;5059851;28;45807;-78
2023/08/11 01:44:51;;;;;;;;;16.67;14.67;;;;;;;;5058901;28;45911;-78
2023/08/11 01:47:17;;;;;;;;;14.67;14.67;;;;;;;;5070249;28;45964;-78
2023/08/11 01:49:42;;;;;;;;;19.67;15.67;;;;;;;;5049551;28;45434;-78
2023/08/11 01:52:08;;;;;;;;;15.00;11.00;;;;;;;;5070542;28;45793;-78
2023/08/11 01:54:34;;;;;;;;;13.50;12.00;;;;;;;;5051392;28;47051;-78
2023/08/11 01:56:59;;;;;;;;;17.33;16.33;;;;;;;;5061103;28;46025;-79
2023/08/11 01:59:25;;;;;;;;;19.67;15.00;;;;;;;;5068769;28;45441;-77
2023/08/11 02:01:50;;;;;;;;;12.67;12.67;;;;;;;;5040845;28;45908;-78
2023/08/11 02:04:15;;;;;;;;;13.67;13.67;;;;;;;;5052770;28;47693;-78
2023/08/11 02:06:41;;;;;;;;;18.67;15.33;;;;;;;;5052174;28;45813;-78
2023/08/11 02:09:08;;;;;;;;;11.67;11.67;;;;;;;;5051196;28;45825;-77
2023/08/11 02:11:35;;;;;;;;;12.67;12.33;;;;;;;;5071242;28;45439;-78
2023/08/11 02:14:00;;;;;;;;;12.00;12.00;;;;;;;;5077138;28;45442;-77
2023/08/11 02:16:25;;;;;;;;;9.67;9.67;;;;;;;;5078273;28;44962;-77
2023/08/11 02:18:50;;;;;;;;;14.33;13.00;;;;;;;;5070612;28;45713;-77
2023/08/11 02:21:16;;;;;;;;;12.67;10.67;;;;;;;;5068331;28;45934;-75
2023/08/11 02:23:41;;;;;;;;;15.00;13.67;;;;;;;;5070761;28;45425;-77
2023/08/11 02:26:06;;;;;;;;;17.00;12.33;;;;;;;;5071388;28;45716;-76
2023/08/11 02:28:33;;;;;;;;;15.00;13.00;;;;;;;;5052414;28;45841;-77
2023/08/11 02:30:58;;;;;;;;;14.33;11.00;;;;;;;;5071165;28;45997;-78
2023/08/11 02:33:23;;;;;;;;;14.33;12.67;;;;;;;;5050400;28;47162;-77
2023/08/11 02:35:48;;;;;;;;;7.00;3.67;;;;;;;;5071128;28;45879;-76
2023/08/11 02:38:13;;;;;;;;;16.67;15.00;;;;;;;;5074011;28;45739;-78
2023/08/11 02:40:39;;;;;;;;;14.00;12.33;;;;;;;;5073539;28;45581;-77
2023/08/11 02:43:04;;;;;;;;;12.67;11.67;;;;;;;;5072547;28;45625;-78
2023/08/11 02:45:30;;;;;;;;;11.67;11.67;;;;;;;;5070823;28;45420;-77
2023/08/11 02:47:56;;;;;;;;;11.33;10.67;;;;;;;;5050126;28;45760;-77
2023/08/11 02:50:21;;;;;;;;;16.67;16.33;;;;;;;;5055496;28;45554;-77
2023/08/11 02:52:46;;;;;;;;;17.00;14.67;;;;;;;;5069033;28;45538;-78
2023/08/11 02:55:12;;;;;;;;;9.67;9.33;;;;;;;;5064893;28;45630;-77
2023/08/11 02:57:37;;;;;;;;;16.67;13.67;;;;;;;;5052984;28;45660;-78
2023/08/11 03:00:09;;;;;;;;;12.67;10.67;;;;;;;;5069249;28;45934;-78
2023/08/11 03:02:35;;;;;;;;;17.00;13.67;;;;;;;;5048944;28;47696;-77
2023/08/11 03:05:00;;;;;;;;;15.33;15.33;;;;;;;;5059734;28;45414;-78
2023/08/11 03:07:26;;;;;;;;;19.67;15.67;;;;;;;;5072307;28;45474;-78
2023/08/11 03:09:51;;;;;;;;;13.33;11.33;;;;;;;;5067584;28;45753;-78
2023/08/11 03:12:16;;;;;;;;;15.00;12.33;;;;;;;;5073663;28;45664;-78
2023/08/11 03:14:41;;;;;;;;;9.67;9.67;;;;;;;;5055208;28;45419;-77
2023/08/11 03:17:09;;;;;;;;;17.33;14.33;;;;;;;;5058005;28;45635;-77
2023/08/11 03:19:35;;;;;;;;;15.67;13.33;;;;;;;;5050421;28;46452;-77
2023/08/11 03:22:00;;;;;;;;;15.00;13.33;;;;;;;;5041938;28;47210;-78
2023/08/11 03:24:26;;;;;;;;;12.67;12.67;;;;;;;;5050257;28;45546;-77
2023/08/11 03:26:51;;;;;;;;;15.00;12.33;;;;;;;;5053937;28;45763;-77
2023/08/11 03:29:16;;;;;;;;;15.67;12.67;;;;;;;;5071783;28;45704;-77
2023/08/11 03:31:41;;;;;;;;;16.67;13.00;;;;;;;;5072895;28;45728;-76
2023/08/11 03:34:07;;;;;;;;;15.33;13.00;;;;;;;;5066928;28;45490;-77
2023/08/11 03:36:32;;;;;;;;;14.67;14.33;;;;;;;;5052757;28;45418;-76
2023/08/11 03:38:58;;;;;;;;;12.33;12.33;;;;;;;;5070384;28;45545;-77
2023/08/11 03:41:23;;;;;;;;;16.67;15.33;;;;;;;;5063908;28;45981;-78
2023/08/11 03:43:49;;;;;;;;;9.67;9.00;;;;;;;;5076551;28;45591;-76
2023/08/11 03:46:14;;;;;;;;;17.67;14.00;;;;;;;;5068384;28;45557;-74
2023/08/11 03:48:40;;;;;;;;;18.67;16.00;;;;;;;;5052877;28;46993;-77
2023/08/11 03:51:05;;;;;;;;;14.00;12.33;;;;;;;;5072051;28;46025;-78
2023/08/11 03:53:31;;;;;;;;;13.33;12.67;;;;;;;;5048262;28;45854;-77
2023/08/11 03:55:56;;;;;;;;;14.00;13.67;;;;;;;;5071825;28;45743;-78
2023/08/11 03:58:22;;;;;;;;;17.33;17.00;;;;;;;;5053312;28;46374;-77
2023/08/11 04:00:48;;;;;;;;;17.33;15.00;;;;;;;;5047631;28;46805;-77
2023/08/11 04:03:13;;;;;;;;;18.67;16.67;;;;;;;;5047888;28;46113;-78
2023/08/11 04:05:38;;;;;;;;;18.33;15.00;;;;;;;;5065819;28;45538;-78
2023/08/11 04:08:07;;;;;;;;;19.33;17.67;;;;;;;;5071380;28;45597;-78
2023/08/11 04:10:32;;;;;;;;;15.33;13.33;;;;;;;;5050206;28;48102;-76
2023/08/11 04:12:58;;;;;;;;;13.33;12.67;;;;;;;;5047404;28;46598;-81
2023/08/11 04:15:24;;;;;;;;;16.67;13.33;;;;;;;;5051510;28;45814;-77
2023/08/11 04:17:49;;;;;;;;;14.00;12.67;;;;;;;;5051724;28;45447;-76
2023/08/11 04:20:15;;;;;;;;;18.33;16.67;;;;;;;;5053526;28;48117;-78
2023/08/11 04:22:40;;;;;;;;;16.00;15.33;;;;;;;;5052353;28;45696;-76
2023/08/11 04:25:07;;;;;;;;;14.67;12.33;;;;;;;;5052922;28;45887;-78
2023/08/11 04:27:33;;;;;;;;;15.00;15.00;;;;;;;;5064167;28;45795;-77
2023/08/11 04:29:58;;;;;;;;;13.00;12.33;;;;;;;;5071581;28;47082;-78
2023/08/11 04:32:23;;;;;;;;;17.33;14.33;;;;;;;;5053182;28;45776;-78
2023/08/11 04:34:49;;;;;;;;;15.00;14.67;;;;;;;;5072895;28;45434;-78
2023/08/11 04:37:14;;;;;;;;;79.00;55.67;;;;;;;;5053528;28;45895;-77
2023/08/11 04:39:40;;;;;;;;;68.33;52.00;;;;;;;;5052435;28;47235;-78
2023/08/11 04:42:07;;;;;;;;;24.00;20.33;;;;;;;;5070095;28;45659;-78
2023/08/11 04:44:33;;;;;;;;;18.00;17.00;;;;;;;;5071373;28;45869;-77
2023/08/11 04:46:58;;;;;;;;;21.33;18.33;;;;;;;;5054299;28;46082;-77
2023/08/11 04:49:23;;;;;;;;;19.67;17.33;;;;;;;;5049960;28;47091;-77
2023/08/11 04:51:48;;;;;;;;;23.00;19.33;;;;;;;;5051521;28;45935;-78
2023/08/11 04:54:13;;;;;;;;;21.00;17.67;;;;;;;;5058848;28;45821;-78
2023/08/11 04:56:39;;;;;;;;;17.67;16.00;;;;;;;;5062200;28;45682;-78
2023/08/11 04:59:04;;;;;;;;;20.33;17.67;;;;;;;;5045363;28;48244;-77
2023/08/11 05:01:29;;;;;;;;;19.00;14.67;;;;;;;;5070659;28;45590;-76
2023/08/11 05:03:54;;;;;;;;;12.67;12.67;;;;;;;;5049439;28;45428;-76
2023/08/11 05:06:20;;;;;;;;;18.33;15.33;;;;;;;;5049865;28;46508;-78
2023/08/11 05:08:45;;;;;;;;;20.33;16.33;;;;;;;;5060883;28;45940;-77
2023/08/11 05:11:10;;;;;;;;;18.33;16.00;;;;;;;;5063789;28;45800;-78
2023/08/11 05:13:36;;;;;;;;;13.33;11.67;;;;;;;;5068306;28;45695;-77
2023/08/11 05:16:01;;;;;;;;;17.00;15.00;;;;;;;;5091253;28;45596;-77
2023/08/11 05:18:27;;;;;;;;;18.00;16.00;;;;;;;;5078082;28;45530;-76
2023/08/11 05:20:52;;;;;;;;;14.33;12.00;;;;;;;;5070314;28;45460;-77
2023/08/11 05:23:18;;;;;;;;;17.33;17.33;;;;;;;;5067281;28;45450;-76
2023/08/11 05:25:43;;;;;;;;;17.33;16.00;;;;;;;;5068001;28;45604;-77
2023/08/11 05:28:09;;;;;;;;;17.00;15.33;;;;;;;;5049247;28;47714;-77
2023/08/11 05:30:34;;;;;;;;;21.00;15.00;;;;;;;;5072030;28;45687;-77
2023/08/11 05:32:59;;;;;;;;;23.67;16.00;;;;;;;;5077630;28;45810;-76
2023/08/11 05:35:26;;;;;;;;;19.00;14.67;;;;;;;;5078743;28;45371;-77
2023/08/11 05:37:51;;;;;;;;;15.67;14.33;;;;;;;;5054810;28;47289;-76
2023/08/11 05:40:16;;;;;;;;;18.00;18.00;;;;;;;;5078989;28;45417;-76
2023/08/11 05:42:42;;;;;;;;;16.00;15.33;;;;;;;;5077608;28;46079;-77
2023/08/11 05:45:08;;;;;;;;;19.33;15.67;;;;;;;;5073734;28;45544;-77
2023/08/11 05:47:33;;;;;;;;;15.00;13.00;;;;;;;;5080778;28;45207;-78
2023/08/11 05:49:58;;;;;;;;;17.33;12.67;;;;;;;;5076879;28;45523;-76
2023/08/11 05:52:24;;;;;;;;;10.75;9.25;;;;;;;;5053895;28;44914;-78
2023/08/11 05:54:49;;;;;;;;;14.50;11.50;;;;;;;;5079561;28;45952;-76
2023/08/11 05:57:14;;;;;;;;;10.25;10.00;;;;;;;;5062213;28;46234;-77
2023/08/11 05:59:39;;;;;;;;;10.25;9.25;;;;;;;;5067350;28;45869;-77
2023/08/11 06:02:05;;;;;;;;;14.00;12.75;;;;;;;;5055738;28;45956;-77
2023/08/11 06:04:30;;;;;;;;;12.50;11.75;;;;;;;;5060554;28;46009;-77
2023/08/11 06:06:55;;;;;;;;;8.50;8.50;;;;;;;;5081556;28;45892;-78
2023/08/11 06:09:21;;;;;;;;;10.00;9.00;;;;;;;;5069331;28;45442;-77
2023/08/11 06:11:46;;;;;;;;;10.00;10.00;;;;;;;;5080903;28;45336;-77
2023/08/11 06:14:12;;;;;;;;;12.00;9.00;;;;;;;;5064197;28;45868;-76
2023/08/11 06:16:37;;;;;;;;;13.75;11.00;;;;;;;;5075757;28;46004;-77
2023/08/11 06:19:02;;;;;;;;;12.00;10.50;;;;;;;;5082310;28;45922;-78
2023/08/11 06:21:27;;;;;;;;;18.00;13.25;;;;;;;;5061240;28;45522;-79
2023/08/11 06:23:53;;;;;;;;;12.00;10.75;;;;;;;;5059715;28;45915;-77
2023/08/11 06:26:18;;;;;;;;;9.75;9.75;;;;;;;;5081306;28;46093;-77
2023/08/11 06:28:44;;;;;;;;;7.50;6.50;;;;;;;;5068241;28;45625;-77
2023/08/11 06:31:10;;;;;;;;;8.00;7.00;;;;;;;;5060492;28;45940;-76
2023/08/11 06:33:35;;;;;;;;;7.75;6.25;;;;;;;;5069842;28;46144;-77
2023/08/11 06:36:00;;;;;;;;;7.00;7.00;;;;;;;;5063985;28;47678;-78
2023/08/11 06:38:26;;;;;;;;;7.75;7.75;;;;;;;;5060410;28;45811;-76
2023/08/11 06:40:51;;;;;;;;;9.25;7.50;;;;;;;;5079570;28;45662;-77
2023/08/11 06:43:17;;;;;;;;;8.75;7.25;;;;;;;;5061876;28;46069;-76
2023/08/11 06:45:44;;;;;;;;;7.75;5.75;;;;;;;;5081961;28;46416;-77
2023/08/11 06:48:10;;;;;;;;;6.25;4.75;;;;;;;;5085615;28;44796;-78
2023/08/11 06:50:35;;;;;;;;;4.75;4.75;;;;;;;;5082493;28;45354;-77
2023/08/11 06:53:00;;;;;;;;;3.75;3.75;;;;;;;;5060411;28;46724;-79
2023/08/11 06:55:25;;;;;;;;;6.50;6.50;;;;;;;;5042623;28;47069;-76
2023/08/11 06:57:51;;;;;;;;;3.25;3.25;;;;;;;;5066654;28;45778;-78
2023/08/11 07:00:16;;;;;;;;;5.50;5.00;;;;;;;;5068194;28;45847;-76
2023/08/11 07:02:41;;;;;;;;;5.00;4.25;;;;;;;;5068268;28;46592;-77
2023/08/11 07:05:07;;;;;;;;;5.25;5.25;;;;;;;;5050197;28;47858;-78
2023/08/11 07:07:32;;;;;;;;;6.50;6.00;;;;;;;;5063283;28;45528;-77
2023/08/11 07:09:57;;;;;;;;;4.00;4.00;;;;;;;;5050615;28;45840;-77
2023/08/11 07:12:22;;;;;;;;;4.00;4.00;;;;;;;;5070171;28;45418;-78
2023/08/11 07:14:48;;;;;;;;;7.75;6.00;;;;;;;;5069323;28;46250;-78
2023/08/11 07:17:14;;;;;;;;;5.75;5.75;;;;;;;;5048897;28;45728;-78
2023/08/11 07:19:39;;;;;;;;;5.00;5.00;;;;;;;;5044032;28;45859;-77
2023/08/11 07:22:04;;;;;;;;;6.00;6.00;;;;;;;;5064317;28;45846;-77
2023/08/11 07:24:29;;;;;;;;;6.00;6.00;;;;;;;;5069003;28;46723;-77
2023/08/11 07:26:55;;;;;;;;;8.00;7.25;;;;;;;;5065418;28;45361;-77
2023/08/11 07:29:20;;;;;;;;;10.25;9.00;;;;;;;;5050201;28;45593;-77
2023/08/11 07:31:45;;;;;;;;;7.00;7.00;;;;;;;;5060394;28;45612;-77
2023/08/11 07:34:10;;;;;;;;;11.25;8.00;;;;;;;;5065303;28;45537;-77
2023/08/11 07:36:36;;;;;;;;;7.25;6.75;;;;;;;;5051048;28;45386;-76
2023/08/11 07:39:01;;;;;;;;;9.00;9.00;;;;;;;;5052555;28;45879;-77
2023/08/11 07:41:27;;;;;;;;;7.50;6.50;;;;;;;;5046282;28;45954;-76
2023/08/11 07:43:52;;;;;;;;;8.00;7.25;;;;;;;;5055871;28;47203;-77
2023/08/11 07:46:17;;;;;;;;;10.00;8.75;;;;;;;;5071539;28;45558;-77
2023/08/11 07:48:42;;;;;;;;;7.25;6.00;;;;;;;;5051296;28;47491;-76
2023/08/11 07:51:08;;;;;;;;;8.75;7.25;;;;;;;;5068638;28;45917;-77
2023/08/11 07:53:36;;;;;;;;;7.75;6.75;;;;;;;;5054575;28;47110;-76
2023/08/11 07:56:01;;;;;;;;;8.75;7.75;;;;;;;;5072027;28;45515;-75
2023/08/11 07:58:26;;;;;;;;;7.00;6.25;;;;;;;;5073006;28;45485;-77
2023/08/11 08:00:51;;;;;;;;;3.75;3.75;;;;;;;;5066693;28;45970;-77
2023/08/11 08:03:16;;;;;;;;;9.00;8.50;;;;;;;;5054288;28;47241;-77
2023/08/11 08:05:42;;;;;;;;;7.50;7.50;;;;;;;;5073396;28;45766;-77
2023/08/11 08:08:07;;;;;;;;;7.75;6.50;;;;;;;;5075603;27;45434;-78
2023/08/11 08:10:32;;;;;;;;;6.50;6.50;;;;;;;;5067998;28;45861;-77
2023/08/11 08:12:57;;;;;;;;;8.25;7.00;;;;;;;;5054445;28;48007;-78
2023/08/11 08:15:24;;;;;;;;;7.00;7.00;;;;;;;;5071759;28;45795;-78
2023/08/11 08:17:49;;;;;;;;;7.75;6.50;;;;;;;;5062627;28;45467;-76
2023/08/11 08:20:16;;;;;;;;;6.00;6.00;;;;;;;;5056337;28;46165;-77
2023/08/11 08:22:42;;;;;;;;;5.00;5.00;;;;;;;;5072828;28;46805;-79
2023/08/11 08:25:07;;;;;;;;;6.25;6.25;;;;;;;;5060729;28;45862;-78
2023/08/11 08:27:33;;;;;;;;;6.25;6.25;;;;;;;;5073264;28;46076;-79
2023/08/11 08:29:59;;;;;;;;;7.00;6.00;;;;;;;;5072014;28;45462;-79
2023/08/11 08:32:24;;;;;;;;;9.75;8.50;;;;;;;;5053448;28;47460;-78
2023/08/11 08:34:49;;;;;;;;;7.75;6.50;;;;;;;;5071625;28;45538;-78
2023/08/11 08:37:16;;;;;;;;;8.00;8.00;;;;;;;;5071821;28;45556;-79
2023/08/11 08:39:43;;;;;;;;;6.50;6.50;;;;;;;;5052867;28;45961;-78
2023/08/11 08:42:09;;;;;;;;;7.00;5.75;;;;;;;;5064718;28;46141;-77
2023/08/11 08:44:35;;;;;;;;;7.25;7.25;;;;;;;;5051535;28;45605;-77
2023/08/11 08:47:04;;;;;;;;;7.25;7.25;;;;;;;;5072973;28;45782;-78
2023/08/11 08:49:29;;;;;;;;;8.00;7.00;;;;;;;;5070573;28;45856;-77
2023/08/11 08:51:55;;;;;;;;;7.75;6.00;;;;;;;;5071168;28;46328;-78
2023/08/11 08:54:21;;;;;;;;;7.00;7.00;;;;;;;;5048200;28;46029;-78
2023/08/11 08:56:46;;;;;;;;;14.67;13.67;;;;;;;;5042402;28;45758;-79
2023/08/11 08:59:11;;;;;;;;;22.33;19.00;;;;;;;;5070543;28;45780;-79
2023/08/11 09:01:37;;;;;;;;;15.00;15.00;;;;;;;;5072107;28;46813;-77
2023/08/11 09:04:03;;;;;;;;;7.50;7.50;;;;;;;;5049516;28;45550;-77
2023/08/11 09:06:29;;;;;;;;;9.00;9.00;;;;;;;;5067540;28;45476;-78
2023/08/11 09:08:55;;;;;;;;;7.00;7.00;;;;;;;;5064814;28;45929;-78
2023/08/11 09:11:21;;;;;;;;;15.33;12.00;;;;;;;;5064489;28;45521;-77
2023/08/11 09:13:46;;;;;;;;;7.00;7.00;;;;;;;;5068983;28;46003;-76
2023/08/11 09:16:14;;;;;;;;;8.33;7.00;;;;;;;;5071044;28;45552;-79
2023/08/11 09:18:39;;;;;;;;;7.67;6.33;;;;;;;;5071211;28;45523;-78
2023/08/11 09:21:05;;;;;;;;;6.00;6.00;;;;;;;;5047931;28;47000;-79
2023/08/11 09:23:32;;;;;;;;;6.00;6.00;;;;;;;;5053440;28;45718;-77
2023/08/11 09:25:57;;;;;;;;;5.67;5.67;;;;;;;;5071046;28;45926;-77
2023/08/11 09:28:22;;;;;;;;;7.00;6.67;;;;;;;;5051055;28;45601;-77
2023/08/11 09:30:48;;;;;;;;;7.00;7.00;;;;;;;;5053851;28;47519;-78
2023/08/11 09:33:13;;;;;;;;;7.67;6.67;;;;;;;;5070387;28;45718;-80
2023/08/11 09:35:38;;;;;;;;;9.33;8.67;;;;;;;;5071411;28;45414;-78
2023/08/11 09:38:04;;;;;;;;;8.33;7.33;;;;;;;;5049510;28;46668;-79
2023/08/11 09:40:31;;;;;;;;;6.33;6.33;;;;;;;;5052094;28;46832;-79
2023/08/11 09:42:57;;;;;;;;;6.33;6.33;;;;;;;;5049830;28;46025;-79
2023/08/11 09:45:23;;;;;;;;;7.00;7.00;;;;;;;;5043468;28;45578;-78
2023/08/11 09:47:48;;;;;;;;;7.00;6.67;;;;;;;;5041442;27;47404;-79
2023/08/11 09:50:14;;;;;;;;;9.00;7.67;;;;;;;;5048839;28;46749;-80
2023/08/11 09:52:41;;;;;;;;;6.33;6.33;;;;;;;;5059505;27;45613;-80
2023/08/11 09:55:08;;;;;;;;;8.00;6.00;;;;;;;;5073076;28;44801;-79
2023/08/11 09:57:36;;;;;;;;;6.00;6.00;;;;;;;;5050886;28;47000;-79
2023/08/11 10:00:01;;;;;;;;;6.00;6.00;;;;;;;;5046761;28;47393;-79
2023/08/11 10:02:29;;;;;;;;;6.00;6.00;;;;;;;;5060841;28;45806;-79
2023/08/11 10:04:58;;;;;;;;;7.00;4.67;;;;;;;;5050858;28;45846;-79
2023/08/11 10:07:29;;;;;;;;;7.67;6.33;;;;;;;;5066974;28;45466;-79
2023/08/11 10:09:56;;;;;;;;;5.00;5.00;;;;;;;;5066244;28;46421;-79
2023/08/11 10:12:21;;;;;;;;;3.75;3.25;;;;;;;;5045652;28;45710;-79
2023/08/11 10:14:47;;;;;;;;;7.00;7.00;;;;;;;;5049104;28;45518;-79
2023/08/11 10:17:12;;;;;;;;;5.00;5.00;;;;;;;;5068488;28;46140;-79
2023/08/11 10:19:37;;;;;;;;;5.00;5.00;;;;;;;;5063635;27;46459;-79
2023/08/11 10:22:03;;;;;;;;;4.25;4.25;;;;;;;;5064653;28;45536;-78
2023/08/11 10:24:29;;;;;;;;;5.00;5.00;;;;;;;;5050949;28;45496;-78
2023/08/11 10:26:54;;;;;;;;;6.00;2.50;;;;;;;;5048066;28;45887;-78
2023/08/11 10:29:20;;;;;;;;;6.25;5.00;;;;;;;;5064581;28;46505;-80
2023/08/11 10:31:56;;;;;;;;;5.67;5.33;;;;;;;;5047626;28;45879;-80
2023/08/11 10:34:25;;;;;;;;;5.00;5.00;;;;;;;;5066386;28;45669;-79
2023/08/11 10:36:53;;;;;;;;;5.00;4.25;;;;;;;;5057502;28;45850;-77
2023/08/11 10:39:21;;;;;;;;;4.00;4.00;;;;;;;;5062317;28;46216;-80
2023/08/11 10:41:46;;;;;;;;;3.67;3.67;;;;;;;;5048762;28;45510;-79
2023/08/11 10:44:12;;;;;;;;;6.00;4.00;;;;;;;;5045808;28;45717;-78
2023/08/11 10:46:38;;;;;;;;;5.33;4.33;;;;;;;;5064210;27;45581;-79
2023/08/11 10:49:03;;;;;;;;;4.00;4.00;;;;;;;;5053390;28;45810;-79
2023/08/11 10:51:32;;;;;;;;;4.00;4.00;;;;;;;;5067932;28;45988;-78
2023/08/11 10:54:02;;;;;;;;;8.00;6.33;;;;;;;;5060229;28;45387;-79
2023/08/11 10:56:31;;;;;;;;;5.00;5.00;;;;;;;;5061590;28;45675;-79
2023/08/11 10:59:08;;;;;;;;;5.00;5.00;;;;;;;;5053918;28;46585;-79
2023/08/11 11:01:35;;;;;;;;;6.75;5.00;;;;;;;;5061337;27;45449;-79
2023/08/11 11:04:01;;;;;;;;;7.33;6.00;;;;;;;;5044870;28;46039;-80
2023/08/11 11:06:26;;;;;;;;;8.75;6.25;;;;;;;;5050029;28;45551;-79
2023/08/11 11:08:51;;;;;;;;;4.25;4.25;;;;;;;;5068055;28;46379;-79
2023/08/11 11:11:17;;;;;;;;;5.25;5.25;;;;;;;;5067234;28;45960;-80
2023/08/11 11:13:42;;;;;;;;;6.00;5.25;;;;;;;;5068968;28;45453;-79
2023/08/11 11:16:07;;;;;;;;;4.50;4.50;;;;;;;;5062117;28;45456;-79
2023/08/11 11:18:33;;;;;;;;;5.00;5.00;;;;;;;;5062791;28;45443;-78
2023/08/11 11:20:58;;;;;;;;;7.00;5.00;;;;;;;;5072694;28;45800;-79
2023/08/11 11:23:23;;;;;;;;;6.25;5.25;;;;;;;;5078278;27;44926;-79
2023/08/11 11:25:49;;;;;;;;;6.00;5.00;;;;;;;;5050041;28;45915;-77
2023/08/11 11:28:14;;;;;;;;;4.25;4.25;;;;;;;;5070036;27;46129;-77
2023/08/11 11:30:40;;;;;;;;;6.50;4.50;;;;;;;;5069665;28;45462;-79
2023/08/11 11:33:05;;;;;;;;;7.50;4.75;;;;;;;;5065050;27;45878;-77
2023/08/11 11:35:30;;;;;;;;;8.00;5.75;;;;;;;;5048357;28;45908;-78
2023/08/11 11:37:58;;;;;;;;;6.25;5.25;;;;;;;;5057664;28;46338;-77
2023/08/11 11:40:23;;;;;;;;;5.75;5.25;;;;;;;;5070874;28;45614;-76
2023/08/11 11:42:49;;;;;;;;;7.25;5.00;;;;;;;;5061181;27;45968;-78
2023/08/11 11:45:14;;;;;;;;;7.25;6.25;;;;;;;;5052631;28;45860;-76
2023/08/11 11:47:40;;;;;;;;;5.00;3.75;;;;;;;;5062226;28;45512;-78
2023/08/11 11:50:07;;;;;;;;;5.00;5.00;;;;;;;;5048106;28;45684;-78
2023/08/11 11:52:32;;;;;;;;;5.50;4.00;;;;;;;;5056566;28;45989;-77
2023/08/11 11:54:58;;;;;;;;;5.00;5.00;;;;;;;;5067593;27;45723;-77
2023/08/11 11:57:23;;;;;;;;;6.00;6.00;;;;;;;;5071542;28;46715;-78
2023/08/11 11:59:53;;;;;;;;;6.25;4.25;;;;;;;;5051886;28;45587;-77
2023/08/11 12:02:18;;;;;;;;;7.00;6.00;;;;;;;;5069753;28;45755;-78
2023/08/11 12:04:44;;;;;;;;;5.25;5.25;;;;;;;;5069476;27;46462;-77
2023/08/11 12:07:09;;;;;;;;;5.50;4.50;;;;;;;;5045771;28;47244;-78
2023/08/11 12:09:53;;;;;;;;;7.75;4.75;;;;;;;;5045065;28;45507;-77
2023/08/11 12:12:18;;;;;;;;;8.00;6.00;;;;;;;;5061017;28;45435;-77
2023/08/11 12:14:44;;;;;;;;;3.25;3.25;;;;;;;;5058534;28;45412;-79
2023/08/11 12:17:09;;;;;;;;;4.75;3.75;;;;;;;;5066133;28;45493;-78
2023/08/11 12:19:35;;;;;;;;;4.00;4.00;;;;;;;;5041963;28;45756;-78
2023/08/11 12:22:00;;;;;;;;;4.25;4.00;;;;;;;;5058790;28;45474;-79
2023/08/11 12:24:25;;;;;;;;;5.00;5.00;;;;;;;;5048283;28;47074;-78
2023/08/11 12:26:51;;;;;;;;;5.00;5.00;;;;;;;;5063869;28;45851;-78
2023/08/11 12:29:16;;;;;;;;;6.50;6.00;;;;;;;;5063731;28;45493;-78
2023/08/11 12:31:41;;;;;;;;;5.00;4.00;;;;;;;;5065884;28;45817;-78
2023/08/11 12:34:06;;;;;;;;;5.50;4.50;;;;;;;;5060758;28;46051;-77
2023/08/11 12:36:32;;;;;;;;;6.00;4.75;;;;;;;;5064856;27;46353;-77
2023/08/11 12:38:57;;;;;;;;;4.25;4.25;;;;;;;;5070738;28;45856;-77
2023/08/11 12:41:23;;;;;;;;;8.00;5.75;;;;;;;;5066273;27;46064;-78
2023/08/11 12:43:48;;;;;;;;;6.75;5.00;;;;;;;;5064033;28;45762;-79
2023/08/11 12:46:14;;;;;;;;;4.50;4.50;;;;;;;;5064776;28;45861;-79
2023/08/11 12:48:39;;;;;;;;;5.25;4.50;;;;;;;;5055932;28;45694;-80
2023/08/11 12:51:04;;;;;;;;;6.75;5.00;;;;;;;;5058361;27;45958;-78
2023/08/11 12:53:30;;;;;;;;;6.00;4.50;;;;;;;;5052920;28;46156;-79
2023/08/11 12:55:55;;;;;;;;;4.50;4.50;;;;;;;;5070786;28;46800;-78
2023/08/11 12:58:20;;;;;;;;;5.50;5.50;;;;;;;;5067670;28;45899;-79
2023/08/11 13:00:45;;;;;;;;;6.00;6.00;;;;;;;;5066494;28;46625;-78
2023/08/11 13:03:12;;;;;;;;;6.50;5.25;;;;;;;;5049013;28;47042;-78
2023/08/11 13:05:37;;;;;;;;;4.75;4.75;;;;;;;;5052148;28;46318;-79
2023/08/11 13:08:03;;;;;;;;;5.00;5.00;;;;;;;;5058985;28;45837;-77
2023/08/11 13:10:28;;;;;;;;;6.00;6.00;;;;;;;;5064069;28;45554;-78
2023/08/11 13:12:53;;;;;;;;;6.00;5.50;;;;;;;;5042660;28;46872;-78
2023/08/11 13:15:18;;;;;;;;;4.50;4.50;;;;;;;;5056842;28;45490;-78
2023/08/11 13:17:46;;;;;;;;;4.25;4.25;;;;;;;;5038026;28;45365;-79
2023/08/11 13:20:12;;;;;;;;;5.00;5.00;;;;;;;;5043414;28;45845;-78
2023/08/11 13:22:37;;;;;;;;;5.00;5.00;;;;;;;;5049166;28;45908;-79
2023/08/11 13:25:02;;;;;;;;;6.75;4.00;;;;;;;;5071209;28;45497;-79
2023/08/11 13:27:28;;;;;;;;;5.75;5.00;;;;;;;;5066570;28;45544;-80
2023/08/11 13:29:53;;;;;;;;;2.00;2.00;;;;;;;;5060280;28;45878;-76
2023/08/11 13:32:18;;;;;;;;;6.25;6.25;;;;;;;;5043094;28;45857;-79
2023/08/11 13:34:43;;;;;;;;;5.00;5.00;;;;;;;;5060238;28;45720;-79
2023/08/11 13:37:09;;;;;;;;;9.25;5.50;;;;;;;;5066914;28;45649;-77
2023/08/11 13:39:34;;;;;;;;;4.75;4.75;;;;;;;;5049035;28;46235;-78
2023/08/11 13:41:59;;;;;;;;;6.00;6.00;;;;;;;;5068531;28;45788;-78
2023/08/11 13:44:25;;;;;;;;;5.75;5.75;;;;;;;;5069872;28;45591;-78
2023/08/11 13:46:50;;;;;;;;;6.50;6.50;;;;;;;;5050010;28;45534;-79
2023/08/11 13:49:15;;;;;;;;;9.00;6.00;;;;;;;;5068663;28;45779;-77
2023/08/11 13:51:41;;;;;;;;;5.50;4.75;;;;;;;;5052293;28;45520;-78
2023/08/11 13:54:06;;;;;;;;;6.25;6.25;;;;;;;;5060119;28;45956;-78
2023/08/11 13:56:34;;;;;;;;;9.00;7.75;;;;;;;;5043313;28;45982;-79
2023/08/11 13:59:03;;;;;;;;;8.50;7.25;;;;;;;;5054652;28;45627;-77
2023/08/11 14:01:29;;;;;;;;;8.50;8.50;;;;;;;;5068298;27;45918;-77
2023/08/11 14:03:54;;;;;;;;;6.00;5.00;;;;;;;;5044445;28;46921;-79
2023/08/11 14:06:20;;;;;;;;;12.00;9.33;;;;;;;;5039775;28;45837;-79
2023/08/11 14:08:45;;;;;;;;;7.75;6.75;;;;;;;;5062915;28;45521;-77
2023/08/11 14:11:11;;;;;;;;;6.25;6.25;;;;;;;;5065784;28;45505;-79
2023/08/11 14:13:37;;;;;;;;;9.75;7.00;;;;;;;;5053728;28;47148;-79
2023/08/11 14:16:02;;;;;;;;;7.50;6.00;;;;;;;;5056095;28;45748;-78
2023/08/11 14:18:27;;;;;;;;;8.00;6.00;;;;;;;;5065152;28;45746;-79
2023/08/11 14:20:52;;;;;;;;;4.75;4.75;;;;;;;;5061980;27;45731;-78
2023/08/11 14:23:18;;;;;;;;;7.00;6.00;;;;;;;;5068371;28;46255;-80